Time;durP1;ratioP1;P1;durP2;ratioP2;P2;SDS_P1;SDS_P2;PMS_P1;PMS_P2;Temp;Humidity;BMP_temperature;BMP_pressure;BME280_temperature;BME280_humidity;BME280_pressure;Samples;Min_cycle;Max_cycle;Signal;HPM_P1;HPM_P2
2022/12/01 00:00:58;;;;;;;58.75;28.15;;;-0.40;99.90;;;;;;5056017;28;20019;-81
2022/12/01 00:03:24;;;;;;;51.88;25.95;;;-0.40;99.90;;;;;;5073521;28;20029;-80
2022/12/01 00:06:03;;;;;;;55.70;24.52;;;-0.40;99.90;;;;;;5074092;28;20017;-81
2022/12/01 00:08:30;;;;;;;49.83;24.85;;;-0.40;99.90;;;;;;5072184;28;20477;-80
2022/12/01 00:11:03;;;;;;;53.85;25.52;;;-0.40;99.90;;;;;;5074061;28;20414;-81
2022/12/01 00:13:29;;;;;;;55.28;25.65;;;-0.40;99.90;;;;;;5048001;28;20036;-80
2022/12/01 00:15:54;;;;;;;53.25;26.15;;;-0.40;99.90;;;;;;5034788;28;20025;-81
2022/12/01 00:18:20;;;;;;;58.80;28.05;;;-0.40;99.90;;;;;;5033379;28;20010;-80
2022/12/01 00:20:49;;;;;;;59.00;27.48;;;-0.40;99.90;;;;;;5034775;28;20489;-80
2022/12/01 00:23:15;;;;;;;63.50;28.33;;;-0.40;99.90;;;;;;5034675;28;20069;-80
2022/12/01 00:25:41;;;;;;;54.47;26.73;;;-0.40;99.90;;;;;;5034651;28;20489;-81
2022/12/01 00:28:06;;;;;;;56.00;25.45;;;-0.40;99.90;;;;;;5033462;28;20033;-80
2022/12/01 00:30:32;;;;;;;56.97;25.55;;;-0.40;99.90;;;;;;5034379;28;20037;-80
2022/12/01 00:32:57;;;;;;;50.83;24.85;;;-0.40;99.90;;;;;;5034520;28;20484;-80
2022/12/01 00:35:23;;;;;;;50.55;23.58;;;-0.40;99.90;;;;;;5033181;28;20025;-81
2022/12/01 00:37:49;;;;;;;51.60;24.38;;;-0.40;99.90;;;;;;5033150;28;20479;-80
2022/12/01 00:40:15;;;;;;;47.85;23.77;;;-0.40;99.90;;;;;;5034520;28;20031;-81
2022/12/01 00:42:40;;;;;;;52.20;24.15;;;-0.40;99.90;;;;;;5033003;28;20398;-80
2022/12/01 00:45:06;;;;;;;49.50;23.23;;;-0.40;99.90;;;;;;5046952;28;20095;-81
2022/12/01 00:47:32;;;;;;;40.85;21.95;;;-0.40;99.90;;;;;;5052786;28;20035;-81
2022/12/01 00:49:57;;;;;;;42.97;21.83;;;-0.40;99.90;;;;;;5052948;28;20120;-80
2022/12/01 00:52:23;;;;;;;51.60;22.75;;;-0.40;99.90;;;;;;5052762;28;20115;-81
2022/12/01 00:54:49;;;;;;;49.40;22.63;;;-0.40;99.90;;;;;;5053980;28;20035;-80
2022/12/01 00:57:14;;;;;;;55.30;23.73;;;-0.30;99.90;;;;;;5052681;28;20502;-81
2022/12/01 00:59:40;;;;;;;46.63;23.33;;;-0.40;99.90;;;;;;5052550;28;20025;-80
2022/12/01 01:02:06;;;;;;;43.92;22.42;;;-0.30;99.90;;;;;;5070955;28;20021;-81
2022/12/01 01:04:34;;;;;;;53.00;23.73;;;-0.30;99.90;;;;;;5072430;28;20104;-81
2022/12/01 01:07:00;;;;;;;47.10;22.70;;;-0.30;99.90;;;;;;5072578;28;20071;-81
2022/12/01 01:09:26;;;;;;;43.45;20.48;;;-0.30;99.90;;;;;;5073509;28;20040;-81
2022/12/01 01:11:53;;;;;;;45.55;22.83;;;-0.40;99.90;;;;;;5072491;28;20031;-81
2022/12/01 01:14:19;;;;;;;48.25;24.73;;;-0.30;99.90;;;;;;5073645;28;20036;-81
2022/12/01 01:16:45;;;;;;;55.47;24.35;;;-0.30;99.90;;;;;;5073695;28;20025;-81
2022/12/01 01:19:10;;;;;;;52.15;25.45;;;-0.30;99.90;;;;;;5072707;28;20043;-81
2022/12/01 01:21:37;;;;;;;51.38;24.90;;;-0.30;99.90;;;;;;5073520;28;20127;-81
2022/12/01 01:24:03;;;;;;;47.42;22.25;;;-0.30;99.90;;;;;;5072272;28;20070;-81
2022/12/01 01:26:30;;;;;;;41.65;21.33;;;-0.30;99.90;;;;;;5072145;28;20025;-81
2022/12/01 01:28:58;;;;;;;45.65;22.50;;;-0.30;99.90;;;;;;5072031;28;20039;-81
2022/12/01 01:31:25;;;;;;;45.33;23.33;;;-0.30;99.90;;;;;;5072011;28;20020;-81
2022/12/01 01:33:51;;;;;;;42.60;21.67;;;-0.20;99.90;;;;;;5073199;28;20020;-80
2022/12/01 01:36:18;;;;;;;46.13;20.85;;;-0.20;99.90;;;;;;5072144;28;20378;-80
2022/12/01 01:38:44;;;;;;;42.63;19.98;;;-0.20;99.90;;;;;;5071922;28;20484;-80
2022/12/01 01:41:10;;;;;;;45.10;21.63;;;-0.20;99.90;;;;;;5072051;28;20500;-80
2022/12/01 01:43:41;;;;;;;46.58;23.33;;;-0.20;99.90;;;;;;5072764;28;20025;-80
2022/12/01 01:46:10;;;;;;;43.88;20.52;;;-0.20;99.90;;;;;;5071977;28;20029;-80
2022/12/01 01:48:39;;;;;;;38.80;20.15;;;-0.20;99.90;;;;;;5055345;28;20045;-80
2022/12/01 01:51:05;;;;;;;38.75;19.17;;;-0.20;99.90;;;;;;5051907;28;20017;-81
2022/12/01 01:53:31;;;;;;;38.80;18.33;;;-0.20;99.90;;;;;;5051680;28;20028;-80
2022/12/01 01:55:57;;;;;;;36.17;18.48;;;-0.20;99.90;;;;;;5053100;28;20052;-81
2022/12/01 01:58:23;;;;;;;37.10;17.80;;;-0.20;99.90;;;;;;5051549;28;20548;-81
2022/12/01 02:00:49;;;;;;;34.92;18.42;;;-0.20;99.90;;;;;;5051599;28;20112;-80
2022/12/01 02:03:17;;;;;;;34.42;15.85;;;-0.20;99.90;;;;;;5051676;28;20017;-81
2022/12/01 02:05:44;;;;;;;28.73;16.23;;;-0.20;99.90;;;;;;5052946;28;20116;-81
2022/12/01 02:08:11;;;;;;;31.92;16.35;;;-0.20;99.90;;;;;;5053086;28;20382;-81
2022/12/01 02:10:55;;;;;;;33.85;18.15;;;-0.20;99.90;;;;;;5051515;28;20035;-81
2022/12/01 02:13:24;;;;;;;31.92;17.70;;;-0.20;99.90;;;;;;5051691;28;20028;-81
2022/12/01 02:16:06;;;;;;;33.28;16.67;;;-0.10;99.90;;;;;;5053010;28;20390;-81
2022/12/01 02:19:15;;;;;;;31.77;14.95;;;-0.10;99.90;;;;;;5052873;28;20114;-81
2022/12/01 02:22:22;;;;;;;28.10;14.82;;;-0.10;99.90;;;;;;5051540;28;20022;-81
2022/12/01 02:25:09;;;;;;;30.52;16.05;;;-0.20;99.90;;;;;;5048352;28;20390;-81
2022/12/01 02:27:51;;;;;;;32.75;17.33;;;-0.10;99.90;;;;;;5051435;28;20021;-80
2022/12/01 02:30:32;;;;;;;35.75;18.10;;;-0.10;99.90;;;;;;5052135;28;20116;-80
2022/12/01 02:33:13;;;;;;;36.15;17.35;;;-0.10;99.90;;;;;;5056820;28;20033;-81
2022/12/01 02:35:48;;;;;;;40.38;17.40;;;-0.20;99.90;;;;;;5055450;28;20123;-81
2022/12/01 02:38:23;;;;;;;29.35;14.70;;;-0.10;99.90;;;;;;5055321;28;20025;-79
2022/12/01 02:40:59;;;;;;;27.85;13.70;;;-0.10;99.90;;;;;;5056582;28;20108;-81
2022/12/01 02:43:42;;;;;;;29.35;15.30;;;-0.10;99.90;;;;;;5056430;28;20426;-81
2022/12/01 02:46:13;;;;;;;;;;;-0.10;99.90;;;;;;5057041;28;20063;-80
2022/12/01 02:48:43;;;;;;;31.52;14.40;;;-0.10;99.90;;;;;;5055183;28;19912;-80
2022/12/01 02:51:18;;;;;;;23.40;12.93;;;-0.10;99.90;;;;;;5055196;28;20078;-80
2022/12/01 02:53:44;;;;;;;24.40;12.82;;;0.00;99.90;;;;;;5055169;28;20413;-81
2022/12/01 02:56:11;;;;;;;28.27;13.93;;;-0.10;99.90;;;;;;5056235;28;20481;-81
2022/12/01 02:58:37;;;;;;;21.80;14.15;;;0.00;99.90;;;;;;5054742;28;20364;-80
2022/12/01 03:01:28;;;;;;;30.33;14.10;;;-0.10;99.90;;;;;;5066151;28;20050;-80
2022/12/01 03:04:16;;;;;;;22.33;12.75;;;-0.10;99.90;;;;;;5074979;28;20029;-80
2022/12/01 03:07:00;;;;;;;26.10;14.30;;;0.00;99.90;;;;;;5076127;28;20070;-81
2022/12/01 03:09:50;;;;;;;29.98;12.82;;;-0.10;99.90;;;;;;5074622;28;20135;-80
2022/12/01 03:12:18;;;;;;;24.73;12.15;;;-0.10;99.90;;;;;;5076129;28;20032;-81
2022/12/01 03:14:57;;;;;;;21.80;12.50;;;-0.10;99.90;;;;;;5075846;28;20021;-80
2022/12/01 03:17:29;;;;;;;24.92;12.60;;;0.00;99.90;;;;;;5075996;28;20016;-80
2022/12/01 03:20:10;;;;;;;22.30;12.40;;;0.00;99.90;;;;;;5075773;28;20024;-80
2022/12/01 03:22:45;;;;;;;24.17;13.27;;;0.00;99.90;;;;;;5074532;28;20075;-80
2022/12/01 03:25:12;;;;;;;23.67;13.10;;;0.00;99.90;;;;;;5074506;28;20016;-81
2022/12/01 03:27:41;;;;;;;23.77;13.30;;;0.00;99.90;;;;;;5074530;28;20086;-81
2022/12/01 03:30:09;;;;;;;26.13;12.45;;;0.00;99.90;;;;;;5075522;28;20074;-81
2022/12/01 03:32:50;;;;;;;25.05;13.68;;;0.00;99.90;;;;;;5074368;28;20013;-81
2022/12/01 03:35:23;;;;;;;32.58;16.67;;;0.00;99.90;;;;;;5075684;28;20056;-81
2022/12/01 03:37:55;;;;;;;39.78;17.58;;;0.00;99.90;;;;;;5074417;28;20517;-81
2022/12/01 03:40:26;;;;;;;25.40;13.95;;;-0.10;99.90;;;;;;5074241;28;20063;-81
2022/12/01 03:43:06;;;;;;;28.13;14.10;;;0.00;99.90;;;;;;5073158;28;20078;-81
2022/12/01 03:46:08;;;;;;;26.30;13.50;;;0.00;99.90;;;;;;5074064;28;20052;-82
2022/12/01 03:48:34;;;;;;;28.90;13.25;;;0.00;99.90;;;;;;5075385;28;20034;-81
2022/12/01 03:51:12;;;;;;;28.85;14.82;;;-0.10;99.90;;;;;;5075359;28;20468;-80
2022/12/01 03:54:01;;;;;;;27.45;14.52;;;-0.10;99.90;;;;;;5075331;28;20048;-81
2022/12/01 03:56:32;;;;;;;30.42;14.70;;;-0.10;99.90;;;;;;5074971;28;20032;-81
2022/12/01 03:59:01;;;;;;;25.60;13.85;;;-0.10;99.90;;;;;;5067460;28;20025;-81
2022/12/01 04:01:31;;;;;;;27.25;13.52;;;-0.10;99.90;;;;;;5068754;28;20035;-80
2022/12/01 04:04:10;;;;;;;37.00;14.93;;;-0.10;99.90;;;;;;5075120;28;20025;-80
2022/12/01 04:06:36;;;;;;;30.23;14.68;;;-0.10;99.90;;;;;;5074928;28;20024;-80
2022/12/01 04:09:02;;;;;;;27.77;13.88;;;0.00;99.90;;;;;;5073652;28;20398;-80
2022/12/01 04:14:12;;;;;;;32.92;16.67;;;-0.10;99.90;;;;;;5075306;28;20035;-81
2022/12/01 04:16:38;;;;;;;24.45;12.95;;;-0.10;99.90;;;;;;5073425;28;20028;-81
2022/12/01 04:19:04;;;;;;;31.90;14.23;;;-0.10;99.90;;;;;;5074859;28;20078;-80
2022/12/01 04:21:29;;;;;;;26.58;13.32;;;-0.10;99.90;;;;;;5073354;28;20028;-80
2022/12/01 04:24:01;;;;;;;29.80;14.15;;;-0.10;99.90;;;;;;5074665;28;20030;-81
2022/12/01 04:26:28;;;;;;;27.85;13.52;;;-0.10;99.90;;;;;;5074543;28;20033;-80
2022/12/01 04:28:54;;;;;;;30.20;15.95;;;-0.10;99.90;;;;;;5074458;28;20043;-80
2022/12/01 04:31:20;;;;;;;27.60;15.18;;;-0.10;99.90;;;;;;5074259;28;20028;-81
2022/12/01 04:33:45;;;;;;;23.52;12.60;;;-0.10;99.90;;;;;;5074450;28;20027;-81
2022/12/01 04:36:11;;;;;;;27.48;14.98;;;-0.10;99.90;;;;;;5072994;28;20107;-81
2022/12/01 04:38:37;;;;;;;26.98;14.30;;;0.00;99.90;;;;;;5073057;28;20077;-81
2022/12/01 04:41:13;;;;;;;32.42;15.60;;;0.00;99.90;;;;;;5074167;28;20032;-81
2022/12/01 04:43:39;;;;;;;27.00;12.90;;;0.00;99.90;;;;;;5069747;28;20025;-80
2022/12/01 04:46:06;;;;;;;25.42;13.60;;;-0.10;99.90;;;;;;5054263;28;20017;-80
2022/12/01 04:48:34;;;;;;;25.10;14.15;;;-0.10;99.90;;;;;;5052787;28;20021;-81
2022/12/01 04:51:01;;;;;;;25.17;11.70;;;0.00;99.90;;;;;;5054116;28;20028;-80
2022/12/01 04:53:26;;;;;;;21.10;12.55;;;0.00;99.90;;;;;;5054136;28;20118;-81
2022/12/01 04:55:52;;;;;;;21.65;10.55;;;-0.10;99.90;;;;;;5053953;28;20056;-81
2022/12/01 04:58:18;;;;;;;28.05;13.65;;;-0.10;99.90;;;;;;5052782;28;20394;-81
2022/12/01 05:00:43;;;;;;;25.67;12.50;;;0.00;99.90;;;;;;5053616;28;20118;-81
2022/12/01 05:03:09;;;;;;;27.30;12.38;;;0.00;99.90;;;;;;5053928;28;20021;-81
2022/12/01 05:05:35;;;;;;;28.05;13.55;;;-0.10;99.90;;;;;;5067060;28;20495;-80
2022/12/01 05:08:00;;;;;;;26.83;13.10;;;-0.10;99.90;;;;;;5074009;28;20028;-80
2022/12/01 05:10:26;;;;;;;31.15;14.20;;;-0.10;99.90;;;;;;5073655;28;20036;-80
2022/12/01 05:12:53;;;;;;;26.38;13.13;;;0.00;99.90;;;;;;5072460;28;20497;-81
2022/12/01 05:15:19;;;;;;;24.90;12.05;;;0.00;99.90;;;;;;5073720;28;20127;-81
2022/12/01 05:17:45;;;;;;;24.10;12.20;;;-0.10;99.90;;;;;;5072268;28;20115;-81
2022/12/01 05:23:02;;;;;;;26.33;13.63;;;0.00;99.90;;;;;;5073898;28;20036;-80
2022/12/01 05:25:28;;;;;;;25.27;14.45;;;-0.10;99.90;;;;;;5059877;28;20037;-80
2022/12/01 05:27:54;;;;;;;28.88;13.60;;;0.00;99.90;;;;;;5040805;28;20028;-80
2022/12/01 05:30:19;;;;;;;25.48;11.07;;;-0.10;99.90;;;;;;5033254;28;20491;-82
2022/12/01 05:32:45;;;;;;;29.75;14.77;;;0.00;99.90;;;;;;5033209;28;20026;-81
2022/12/01 05:35:11;;;;;;;29.60;14.48;;;0.00;99.90;;;;;;5032027;28;20026;-81
2022/12/01 05:37:36;;;;;;;25.98;13.10;;;0.00;99.90;;;;;;5032611;28;20478;-82
2022/12/01 05:40:02;;;;;;;23.50;11.55;;;0.00;99.90;;;;;;5033448;28;20025;-81
2022/12/01 05:42:28;;;;;;;24.45;11.80;;;0.00;99.90;;;;;;5033236;28;20432;-81
2022/12/01 05:44:53;;;;;;;26.05;11.73;;;0.00;99.90;;;;;;5034292;28;20084;-81
2022/12/01 05:47:19;;;;;;;29.83;13.90;;;0.00;99.90;;;;;;5036511;28;20045;-81
2022/12/01 05:49:45;;;;;;;21.13;11.05;;;0.00;99.90;;;;;;5031808;28;20029;-80
2022/12/01 05:52:10;;;;;;;22.52;12.00;;;0.00;99.90;;;;;;5032403;28;20071;-80
2022/12/01 05:54:36;;;;;;;27.10;12.80;;;0.00;99.90;;;;;;5041576;28;20017;-81
2022/12/01 05:57:01;;;;;;;24.95;11.10;;;0.00;99.90;;;;;;5033042;28;20057;-81
2022/12/01 05:59:27;;;;;;;26.10;12.10;;;0.00;99.90;;;;;;5034756;28;20075;-81
2022/12/01 06:01:53;;;;;;;25.95;13.30;;;0.00;99.90;;;;;;5037843;28;20041;-81
2022/12/01 06:04:19;;;;;;;23.98;11.25;;;0.00;99.90;;;;;;5031814;28;20044;-81
2022/12/01 06:06:44;;;;;;;27.10;12.00;;;0.00;99.90;;;;;;5037207;28;20026;-79
2022/12/01 06:09:10;;;;;;;29.02;13.93;;;0.00;99.90;;;;;;5039435;28;20033;-79
2022/12/01 06:11:35;;;;;;;26.92;12.48;;;0.00;99.90;;;;;;5039478;28;20099;-80
2022/12/01 06:14:01;;;;;;;26.95;13.38;;;-0.10;99.90;;;;;;5039146;28;20018;-80
2022/12/01 06:16:27;;;;;;;28.63;14.20;;;0.00;99.90;;;;;;5038101;28;20479;-81
2022/12/01 06:18:52;;;;;;;29.40;13.88;;;0.00;99.90;;;;;;5038081;28;20028;-80
2022/12/01 06:21:18;;;;;;;29.40;13.10;;;0.00;99.90;;;;;;5037477;28;20511;-82
2022/12/01 06:23:44;;;;;;;26.10;13.02;;;0.00;99.90;;;;;;5037839;28;20028;-80
2022/12/01 06:26:09;;;;;;;24.15;12.85;;;0.00;99.90;;;;;;5045277;28;20075;-80
2022/12/01 06:28:35;;;;;;;22.33;11.90;;;0.00;99.90;;;;;;5057260;28;20060;-82
2022/12/01 06:31:00;;;;;;;26.92;13.63;;;0.00;99.90;;;;;;5063658;28;20025;-81
2022/12/01 06:33:30;;;;;;;30.15;12.32;;;0.00;99.90;;;;;;5040694;28;20025;-81
2022/12/01 06:36:00;;;;;;;28.95;14.80;;;0.00;99.90;;;;;;5058013;28;20032;-81
2022/12/01 06:38:29;;;;;;;33.42;15.45;;;0.00;99.90;;;;;;5057779;28;20367;-82
2022/12/01 06:40:54;;;;;;;33.05;16.35;;;0.00;99.90;;;;;;5057915;28;20025;-81
2022/12/01 06:43:20;;;;;;;28.95;14.10;;;0.10;99.90;;;;;;5055772;28;20034;-80
2022/12/01 06:45:46;;;;;;;35.15;15.38;;;0.10;99.90;;;;;;5056610;28;20495;-81
2022/12/01 06:48:11;;;;;;;31.77;16.70;;;0.00;99.90;;;;;;5057986;28;20025;-82
2022/12/01 06:50:37;;;;;;;35.45;13.93;;;0.10;99.90;;;;;;5056118;28;20044;-82
2022/12/01 06:53:04;;;;;;;29.48;12.90;;;0.10;99.90;;;;;;5038023;28;20054;-82
2022/12/01 06:55:29;;;;;;;37.40;13.60;;;0.10;99.90;;;;;;5055998;28;20036;-82
2022/12/01 06:57:58;;;;;;;33.20;14.85;;;0.00;99.90;;;;;;5057719;28;20060;-81
2022/12/01 07:00:23;;;;;;;35.28;14.85;;;0.00;99.90;;;;;;5062631;28;20454;-80
2022/12/01 07:02:49;;;;;;;31.73;13.52;;;0.10;99.90;;;;;;5057720;28;20032;-82
2022/12/01 07:05:14;;;;;;;34.80;16.95;;;0.00;99.90;;;;;;5057836;28;20017;-82
2022/12/01 07:07:40;;;;;;;29.73;13.52;;;0.00;99.90;;;;;;5057422;28;20455;-81
2022/12/01 07:10:07;;;;;;;32.33;15.88;;;0.00;99.90;;;;;;5038924;28;20041;-81
2022/12/01 07:12:33;;;;;;;37.83;15.65;;;0.00;99.90;;;;;;5038686;28;20021;-80
2022/12/01 07:14:58;;;;;;;35.50;15.70;;;-0.10;99.90;;;;;;5038826;28;20091;-80
2022/12/01 07:17:24;;;;;;;55.08;17.63;;;-0.10;99.90;;;;;;5052855;28;20478;-82
2022/12/01 07:19:50;;;;;;;31.77;15.65;;;-0.10;99.90;;;;;;5074405;28;20039;-82
2022/12/01 07:22:15;;;;;;;28.85;13.45;;;-0.10;99.90;;;;;;5075843;28;20024;-80
2022/12/01 07:24:41;;;;;;;33.35;14.57;;;-0.10;99.90;;;;;;5074397;28;20024;-81
2022/12/01 07:27:06;;;;;;;54.30;15.98;;;-0.10;99.90;;;;;;5061867;28;20029;-81
2022/12/01 07:29:32;;;;;;;32.88;14.60;;;-0.10;99.90;;;;;;5053875;28;20490;-81
2022/12/01 07:31:58;;;;;;;32.55;15.15;;;-0.10;99.90;;;;;;5055556;28;20139;-82
2022/12/01 07:34:23;;;;;;;33.08;14.85;;;-0.10;99.90;;;;;;5055265;28;20055;-82
2022/12/01 07:36:49;;;;;;;36.50;15.43;;;0.00;99.90;;;;;;5054165;28;20107;-81
2022/12/01 07:39:15;;;;;;;37.33;15.43;;;0.00;99.90;;;;;;5054138;28;20397;-82
2022/12/01 07:41:40;;;;;;;43.10;16.15;;;0.00;99.90;;;;;;5055342;28;20036;-81
2022/12/01 07:44:08;;;;;;;33.35;13.05;;;0.00;99.90;;;;;;5055181;28;20080;-80
2022/12/01 07:46:33;;;;;;;30.92;14.98;;;0.00;99.90;;;;;;5055210;28;20033;-80
2022/12/01 07:48:59;;;;;;;27.77;14.50;;;0.00;99.90;;;;;;5053533;28;20044;-79
2022/12/01 07:51:25;;;;;;;32.35;13.63;;;0.10;99.90;;;;;;5056837;28;20029;-79
2022/12/01 07:53:52;;;;;;;31.40;13.20;;;0.10;99.90;;;;;;5055176;28;20445;-79
2022/12/01 07:56:19;;;;;;;34.20;15.18;;;0.10;99.90;;;;;;5053280;28;20021;-80
2022/12/01 07:58:45;;;;;;;34.13;14.85;;;0.10;99.90;;;;;;5054897;28;20033;-80
2022/12/01 08:01:16;;;;;;;35.97;14.20;;;0.10;99.90;;;;;;5053349;28;20032;-79
2022/12/01 08:03:42;;;;;;;27.17;12.48;;;0.10;99.90;;;;;;5053638;28;20035;-80
2022/12/01 08:06:09;;;;;;;35.95;15.75;;;0.10;99.90;;;;;;5053579;28;20021;-80
2022/12/01 08:08:36;;;;;;;29.00;13.10;;;0.10;99.90;;;;;;5054625;28;20146;-79
2022/12/01 08:11:05;;;;;;;29.15;15.70;;;0.10;99.90;;;;;;5053617;28;20037;-80
2022/12/01 08:13:31;;;;;;;34.40;15.73;;;0.10;99.90;;;;;;5053293;28;20029;-79
2022/12/01 08:15:56;;;;;;;26.50;12.80;;;0.10;99.90;;;;;;5053204;28;20021;-79
2022/12/01 08:18:23;;;;;;;33.83;14.85;;;0.10;99.90;;;;;;5050495;28;20502;-79
2022/12/01 08:20:49;;;;;;;33.22;13.90;;;0.10;99.90;;;;;;5049312;28;20024;-80
2022/12/01 08:23:15;;;;;;;31.27;14.75;;;0.10;99.90;;;;;;5049340;28;20534;-79
2022/12/01 08:25:41;;;;;;;35.65;16.55;;;0.10;99.90;;;;;;5050565;28;20104;-79
2022/12/01 08:28:06;;;;;;;33.42;15.43;;;0.10;99.90;;;;;;5049261;28;20040;-79
2022/12/01 08:30:32;;;;;;;44.75;16.90;;;0.10;99.90;;;;;;5051277;28;20039;-80
2022/12/01 08:32:57;;;;;;;28.85;12.60;;;0.10;99.90;;;;;;5052230;28;20013;-79
2022/12/01 08:35:24;;;;;;;32.33;14.93;;;0.10;99.90;;;;;;5051222;28;20108;-79
2022/12/01 08:37:53;;;;;;;25.40;11.68;;;0.10;99.90;;;;;;5052446;28;20025;-81
2022/12/01 08:40:19;;;;;;;27.23;12.55;;;0.10;99.90;;;;;;5050953;28;20036;-79
2022/12/01 08:42:45;;;;;;;31.30;14.00;;;0.10;99.90;;;;;;5051005;28;20060;-80
2022/12/01 08:45:11;;;;;;;25.48;12.68;;;0.10;99.90;;;;;;5050762;28;20475;-79
2022/12/01 08:47:36;;;;;;;32.67;14.32;;;0.10;99.90;;;;;;5049047;28;20023;-79
2022/12/01 08:50:03;;;;;;;25.50;11.73;;;0.20;99.90;;;;;;5051339;28;20112;-79
2022/12/01 08:52:33;;;;;;;27.08;13.07;;;0.20;99.90;;;;;;5052283;28;20033;-82
2022/12/01 08:54:59;;;;;;;29.60;12.65;;;0.20;99.90;;;;;;5053410;28;20025;-82
2022/12/01 08:57:24;;;;;;;24.88;11.27;;;0.20;99.90;;;;;;5053255;28;20033;-81
2022/12/01 08:59:50;;;;;;;21.95;10.38;;;0.20;99.90;;;;;;5053168;28;20035;-81
2022/12/01 09:02:21;;;;;;;20.98;9.88;;;0.20;99.90;;;;;;5054069;28;20059;-81
2022/12/01 09:04:48;;;;;;;15.27;8.30;;;0.20;99.90;;;;;;5052491;28;20021;-79
2022/12/01 09:07:15;;;;;;;14.00;8.60;;;0.20;99.90;;;;;;5053788;28;20490;-81
2022/12/01 09:09:42;;;;;;;14.48;7.43;;;0.30;99.90;;;;;;5053534;28;20176;-82
2022/12/01 09:12:08;;;;;;;17.08;8.18;;;0.30;99.90;;;;;;5051823;28;20043;-79
2022/12/01 09:14:38;;;;;;;13.48;8.35;;;0.30;99.90;;;;;;5050312;28;20025;-81
2022/12/01 09:17:05;;;;;;;24.10;10.02;;;0.30;99.90;;;;;;5050394;28;20029;-81
2022/12/01 09:19:30;;;;;;;19.63;9.15;;;0.30;99.90;;;;;;5051767;28;20167;-79
2022/12/01 09:21:56;;;;;;;13.35;8.48;;;0.30;99.90;;;;;;5052424;28;20593;-82
2022/12/01 09:24:22;;;;;;;21.65;9.90;;;0.30;99.90;;;;;;5050958;28;20044;-82
2022/12/01 09:26:48;;;;;;;28.65;12.32;;;0.20;99.90;;;;;;5053211;28;20035;-81
2022/12/01 09:29:15;;;;;;;16.20;8.65;;;0.20;99.90;;;;;;5052289;28;20032;-79
2022/12/01 09:31:41;;;;;;;15.43;8.35;;;0.20;99.90;;;;;;5052053;28;20029;-79
2022/12/01 09:34:16;;;;;;;15.55;8.05;;;0.20;99.90;;;;;;5052104;28;20021;-82
2022/12/01 09:36:41;;;;;;;26.83;9.25;;;0.20;99.90;;;;;;5053448;28;20036;-82
2022/12/01 09:39:12;;;;;;;17.10;9.82;;;0.20;99.90;;;;;;5052028;28;20025;-79
2022/12/01 09:41:55;;;;;;;17.17;8.70;;;0.20;99.90;;;;;;5052756;28;20021;-82
2022/12/01 09:44:41;;;;;;;15.73;8.35;;;0.20;99.90;;;;;;5053228;28;20100;-79
2022/12/01 09:47:07;;;;;;;24.02;8.95;;;0.30;99.90;;;;;;5053260;28;20025;-79
2022/12/01 09:49:42;;;;;;;33.88;10.65;;;0.20;99.90;;;;;;5053193;28;20044;-81
2022/12/01 09:52:12;;;;;;;16.80;8.50;;;0.20;99.90;;;;;;5053150;28;20113;-79
2022/12/01 09:54:38;;;;;;;12.32;8.15;;;0.20;99.90;;;;;;5051954;28;20049;-79
2022/12/01 09:57:04;;;;;;;17.90;10.65;;;0.30;99.90;;;;;;5051841;28;20485;-82
2022/12/01 09:59:40;;;;;;;17.88;10.25;;;0.30;99.90;;;;;;5053221;28;20064;-79
2022/12/01 10:02:35;;;;;;;15.70;9.00;;;0.30;99.90;;;;;;5033112;28;20029;-82
2022/12/01 10:05:05;;;;;;;22.25;10.07;;;0.30;99.90;;;;;;5031829;28;20021;-82
2022/12/01 10:07:37;;;;;;;17.88;10.45;;;0.30;99.90;;;;;;5031923;28;20049;-79
2022/12/01 10:10:13;;;;;;;23.15;11.25;;;0.30;99.90;;;;;;5031725;28;20037;-82
2022/12/01 10:12:45;;;;;;;18.58;9.95;;;0.30;99.90;;;;;;5031893;28;20396;-79
2022/12/01 10:15:23;;;;;;;17.30;10.93;;;0.30;99.90;;;;;;5031773;28;20036;-79
2022/12/01 10:18:15;;;;;;;21.38;9.75;;;0.20;99.90;;;;;;5033196;28;20087;-79
2022/12/01 10:21:07;;;;;;;21.30;10.65;;;0.30;99.90;;;;;;5031181;28;20037;-79
2022/12/01 10:23:45;;;;;;;20.55;11.77;;;0.30;99.90;;;;;;5031827;28;20032;-82
2022/12/01 10:26:22;;;;;;;19.58;9.93;;;0.30;99.90;;;;;;5033112;28;20025;-79
2022/12/01 10:28:57;;;;;;;18.50;10.05;;;0.30;99.90;;;;;;5033208;28;20036;-82
2022/12/01 10:31:42;;;;;;;27.05;11.93;;;0.30;99.90;;;;;;5031567;28;20022;-82
2022/12/01 10:34:22;;;;;;;14.85;7.28;;;0.30;99.90;;;;;;5032845;28;20021;-82
2022/12/01 10:36:48;;;;;;;19.65;8.70;;;0.30;99.90;;;;;;5032904;28;20025;-79
2022/12/01 10:39:38;;;;;;;15.60;7.78;;;0.30;99.90;;;;;;5031639;28;20025;-82
2022/12/01 10:42:25;;;;;;;17.15;8.20;;;0.30;99.90;;;;;;5040755;28;20017;-82
2022/12/01 10:44:55;;;;;;;13.50;7.10;;;0.40;99.90;;;;;;5052927;28;20045;-82
2022/12/01 10:47:24;;;;;;;10.65;6.90;;;0.30;99.90;;;;;;5051509;28;20021;-79
2022/12/01 10:49:50;;;;;;;21.23;8.50;;;0.30;99.90;;;;;;5052635;28;20044;-79
2022/12/01 10:52:37;;;;;;;12.23;6.82;;;0.40;99.90;;;;;;5055142;28;20021;-79
2022/12/01 10:55:25;;;;;;;12.00;6.53;;;0.30;99.90;;;;;;5056738;28;20017;-79
2022/12/01 10:57:53;;;;;;;12.70;5.15;;;0.40;99.90;;;;;;5056399;28;20025;-81
2022/12/01 11:00:24;;;;;;;32.53;8.48;;;0.40;99.90;;;;;;5056379;28;20025;-78
2022/12/01 11:02:50;;;;;;;13.18;6.90;;;0.40;99.90;;;;;;5056360;28;20025;-80
2022/12/01 11:05:31;;;;;;;12.80;6.70;;;0.40;99.90;;;;;;5055006;28;20017;-82
2022/12/01 11:07:58;;;;;;;9.63;5.68;;;0.40;99.90;;;;;;5055182;28;20540;-82
2022/12/01 11:10:30;;;;;;;13.57;7.43;;;0.40;99.90;;;;;;5055812;28;20086;-79
2022/12/01 11:12:57;;;;;;;37.30;9.65;;;0.50;99.90;;;;;;5054652;28;20063;-79
2022/12/01 11:15:31;;;;;;;12.00;6.15;;;0.50;99.90;;;;;;5054735;28;20021;-82
2022/12/01 11:18:06;;;;;;;12.40;7.90;;;0.50;99.90;;;;;;5054752;28;20025;-82
2022/12/01 11:20:36;;;;;;;14.05;7.55;;;0.50;99.90;;;;;;5054532;28;20382;-82
2022/12/01 11:23:17;;;;;;;16.55;8.07;;;0.40;99.90;;;;;;5054505;28;20435;-79
2022/12/01 11:26:00;;;;;;;14.40;7.75;;;0.40;99.90;;;;;;5054570;28;20384;-79
2022/12/01 11:28:26;;;;;;;8.10;4.57;;;0.40;99.90;;;;;;5054580;28;20094;-82
2022/12/01 11:31:04;;;;;;;12.50;7.28;;;0.40;99.90;;;;;;5050956;28;20041;-79
2022/12/01 11:33:37;;;;;;;10.15;5.25;;;0.40;99.90;;;;;;5066702;28;20043;-79
2022/12/01 11:36:03;;;;;;;8.88;5.43;;;0.40;99.90;;;;;;5060187;28;20040;-79
2022/12/01 11:38:33;;;;;;;49.30;12.52;;;0.40;99.90;;;;;;5051011;28;20033;-79
2022/12/01 11:40:59;;;;;;;12.38;6.53;;;0.40;99.90;;;;;;5058784;28;20526;-80
2022/12/01 11:43:32;;;;;;;13.15;6.75;;;0.40;99.90;;;;;;5047538;28;20754;-79
2022/12/01 11:46:08;;;;;;;6.82;5.50;;;0.40;99.90;;;;;;5055415;28;20044;-80
2022/12/01 11:48:35;;;;;;;11.45;5.55;;;0.40;99.90;;;;;;5047178;28;20033;-80
2022/12/01 11:51:10;;;;;;;11.15;5.47;;;0.40;99.90;;;;;;5051249;28;20040;-79
2022/12/01 11:53:39;;;;;;;9.93;5.93;;;0.40;99.90;;;;;;5053249;28;20021;-80
2022/12/01 11:56:16;;;;;;;9.60;6.00;;;0.40;99.90;;;;;;5051793;28;20072;-79
2022/12/01 11:58:47;;;;;;;10.70;5.85;;;0.40;99.90;;;;;;5049921;28;20525;-79
2022/12/01 12:01:41;;;;;;;8.27;5.95;;;0.30;99.90;;;;;;5047615;28;20049;-81
2022/12/01 12:04:25;;;;;;;10.43;5.65;;;0.30;99.90;;;;;;5057919;28;20049;-80
2022/12/01 12:06:53;;;;;;;8.68;6.22;;;0.30;99.90;;;;;;5052483;28;20101;-80
2022/12/01 12:09:27;;;;;;;12.45;7.32;;;0.40;99.90;;;;;;5041900;28;20383;-80
2022/12/01 12:12:01;;;;;;;13.18;5.85;;;0.40;99.90;;;;;;5053232;28;20033;-79
2022/12/01 12:14:55;;;;;;;10.40;7.03;;;0.40;99.90;;;;;;5043913;28;20025;-79
2022/12/01 12:17:48;;;;;;;10.30;6.22;;;0.30;99.90;;;;;;5045735;28;20033;-79
2022/12/01 12:20:44;;;;;;;15.80;8.70;;;0.40;99.90;;;;;;5051092;28;20036;-80
2022/12/01 12:23:29;;;;;;;17.80;9.65;;;0.40;99.90;;;;;;5054848;28;20040;-80
2022/12/01 12:25:55;;;;;;;11.88;7.13;;;0.40;99.90;;;;;;5045249;28;20060;-80
2022/12/01 12:28:49;;;;;;;12.02;7.00;;;0.30;99.90;;;;;;5047114;28;20058;-79
2022/12/01 12:31:44;;;;;;;16.15;8.75;;;0.30;99.90;;;;;;5040348;28;20041;-80
2022/12/01 12:34:10;;;;;;;13.43;7.82;;;0.30;99.90;;;;;;5048785;28;20103;-80
2022/12/01 12:36:58;;;;;;;14.68;8.70;;;0.30;99.90;;;;;;5037705;28;20116;-80
2022/12/01 12:39:52;;;;;;;17.10;9.07;;;0.30;99.90;;;;;;5051555;28;20115;-79
2022/12/01 12:42:49;;;;;;;17.83;8.80;;;0.30;99.90;;;;;;5048800;28;20131;-80
2022/12/01 12:45:27;;;;;;;18.92;9.80;;;0.30;99.90;;;;;;5043874;28;20089;-80
2022/12/01 12:48:11;;;;;;;21.48;11.90;;;0.30;99.90;;;;;;5048437;28;20037;-79
2022/12/01 12:50:48;;;;;;;18.23;11.30;;;0.40;99.90;;;;;;5051815;28;20036;-80
2022/12/01 12:53:19;;;;;;;25.55;11.70;;;0.30;99.90;;;;;;5043596;28;20103;-80
2022/12/01 12:55:49;;;;;;;20.02;10.65;;;0.30;99.90;;;;;;5047592;28;20019;-79
2022/12/01 12:58:15;;;;;;;20.52;11.57;;;0.30;99.90;;;;;;5044148;28;20026;-79